KPUW/PUW METAR and TAF weather

Enter ICAO airport designator
Station Type Date Time Source
KPUW METAR 2019/12/08 14:11 UTC NOAA

KPUW 081411Z AUTO 30009KT 1SM R05/6000VP6000FT BR OVC001 01/01 A2988 RMK AO2 T00110006


Station Type Date Time Source
KPUW Decoded METAR 2019/12/08 14:11 UTC NOAA

PULLMAN/MOSCOW RGNL AIRPORT , WA, United States (KPUW) 46-45N 117-07W 773M
Dec 08, 2019 - 09:11 AM EST / 2019.12.08 1411 UTC
Wind: from the WNW (300 degrees) at 10 MPH (9 KT):0
Visibility: 1 mile(s):0
Sky conditions: overcast
Weather: mist
Temperature: 34.0 F (1.1 C)
Windchill: 26 F (-3 C):1
Dew Point: 33.1 F (0.6 C)
Relative Humidity: 96%
Pressure (altimeter): 29.88 in. Hg (1011 hPa)
ob: KPUW 081411Z AUTO 30009KT 1SM R05/6000VP6000FT BR OVC001 01/01 A2988 RMK AO2 T00110006
cycle: 14

Station Type Date Time Source
KPUW TAF 2019/12/08 13:33 UTC NOAA

TAF
AMD KPUW 081231Z 0813/0912 28009KT 1/4SM FG VV002
FM081500 27008KT 1/2SM FG OVC002
FM082000 27008KT 3SM BR OVC007
FM082100 26006KT P6SM OVC015
FM090300 VRB03KT P6SM BKN015
FM090900 12004KT P6SM SCT015

Example: see airport list